Time;durP1;ratioP1;P1;durP2;ratioP2;P2;SDS_P1;SDS_P2;PMS_P1;PMS_P2;Temp;Humidity;BMP_temperature;BMP_pressure;BME280_temperature;BME280_humidity;BME280_pressure;Samples;Min_cycle;Max_cycle;Signal;HPM_P1;HPM_P2
2023/04/10 00:00:55;;;;;;;26.60;17.93;;;4.80;99.90;;;;;;5004016;28;20234;-75
2023/04/10 00:03:22;;;;;;;26.80;18.63;;;4.80;99.90;;;;;;5011079;28;20217;-75
2023/04/10 00:05:49;;;;;;;28.27;19.00;;;4.80;99.90;;;;;;5007379;28;20265;-75
2023/04/10 00:08:16;;;;;;;27.30;19.43;;;4.80;99.90;;;;;;5002871;28;20672;-74
2023/04/10 00:10:43;;;;;;;26.33;19.13;;;4.80;99.90;;;;;;5002980;28;20230;-74
2023/04/10 00:13:10;;;;;;;30.30;19.43;;;4.70;99.90;;;;;;5001010;28;20223;-75
2023/04/10 00:15:37;;;;;;;28.43;17.80;;;4.70;99.90;;;;;;4999848;28;20408;-75
2023/04/10 00:18:05;;;;;;;29.43;18.97;;;4.70;99.90;;;;;;5015886;23;20237;-75
2023/04/10 00:20:32;;;;;;;28.40;19.17;;;4.70;99.90;;;;;;4979038;28;20222;-75
2023/04/10 00:22:59;;;;;;;27.70;19.37;;;4.60;99.90;;;;;;4982826;28;20254;-75
2023/04/10 00:25:26;;;;;;;30.80;19.60;;;4.70;99.90;;;;;;4999986;28;20218;-75
2023/04/10 00:27:53;;;;;;;29.03;18.87;;;4.60;99.90;;;;;;4990711;28;20235;-76
2023/04/10 00:30:20;;;;;;;29.73;19.37;;;4.60;99.90;;;;;;4967266;28;20234;-77
2023/04/10 00:32:46;;;;;;;30.63;20.50;;;4.60;99.90;;;;;;4983171;28;20259;-78
2023/04/10 00:35:15;;;;;;;31.63;20.07;;;4.60;99.90;;;;;;4982741;28;20224;-77
2023/04/10 00:37:42;;;;;;;28.53;19.77;;;4.60;99.90;;;;;;4965688;28;20240;-77
2023/04/10 00:40:09;;;;;;;28.47;19.13;;;4.60;99.90;;;;;;4982513;28;20226;-78
2023/04/10 00:42:36;;;;;;;31.43;19.67;;;4.60;99.90;;;;;;4982201;28;20241;-75
2023/04/10 00:45:04;;;;;;;31.20;21.30;;;4.60;99.90;;;;;;4981237;28;20246;-75
2023/04/10 00:47:31;;;;;;;28.30;19.43;;;4.60;99.90;;;;;;4980827;28;20242;-75
2023/04/10 00:49:59;;;;;;;32.17;20.77;;;4.60;99.90;;;;;;4979772;28;20424;-75
2023/04/10 00:52:27;;;;;;;28.37;19.03;;;4.50;99.90;;;;;;4960871;28;20342;-76
2023/04/10 00:54:55;;;;;;;30.03;19.80;;;4.50;99.90;;;;;;4959499;28;20223;-76
2023/04/10 00:57:21;;;;;;;30.43;20.73;;;4.50;99.90;;;;;;4979930;28;20281;-76
2023/04/10 00:59:50;;;;;;;28.87;19.60;;;4.50;99.90;;;;;;4960618;28;20244;-76
2023/04/10 01:02:19;;;;;;;29.10;19.77;;;4.50;99.90;;;;;;4978666;28;20223;-75
2023/04/10 01:04:46;;;;;;;31.53;20.70;;;4.50;99.90;;;;;;4977454;28;20229;-76
2023/04/10 01:07:21;;;;;;;30.67;20.70;;;4.40;99.90;;;;;;4978033;28;20776;-76
2023/04/10 01:09:56;;;;;;;34.33;21.67;;;4.40;99.90;;;;;;4968768;28;20688;-75
2023/04/10 01:12:38;;;;;;;31.20;19.00;;;4.40;99.90;;;;;;4978215;28;20231;-74
2023/04/10 01:15:10;;;;;;;27.40;19.33;;;4.40;99.90;;;;;;4979271;28;21957;-75
2023/04/10 01:17:45;;;;;;;32.33;20.63;;;4.40;99.90;;;;;;4975751;28;20237;-75
2023/04/10 01:20:15;;;;;;;30.13;19.23;;;4.40;99.90;;;;;;4978372;28;20223;-77
2023/04/10 01:22:57;;;;;;;29.13;19.40;;;4.40;99.90;;;;;;4964451;28;20826;-76
2023/04/10 01:25:46;;;;;;;31.17;19.67;;;4.40;99.90;;;;;;4977227;28;20330;-76
2023/04/10 01:28:53;;;;;;;27.43;19.87;;;4.40;99.90;;;;;;4963709;28;20231;-76
2023/04/10 01:31:25;;;;;;;30.77;19.40;;;4.40;99.90;;;;;;4959704;28;20254;-76
2023/04/10 01:34:00;;;;;;;32.00;20.63;;;4.40;99.90;;;;;;4964212;28;20698;-76
2023/04/10 01:36:31;;;;;;;30.83;20.07;;;4.40;99.90;;;;;;4979933;28;20317;-76
2023/04/10 01:38:59;;;;;;;29.83;20.27;;;4.40;99.90;;;;;;4976684;28;20318;-76
2023/04/10 01:41:27;;;;;;;30.17;19.67;;;4.40;99.90;;;;;;4975830;28;20293;-76
2023/04/10 01:43:58;;;;;;;32.07;20.63;;;4.30;99.90;;;;;;4964449;28;20229;-75
2023/04/10 01:46:27;;;;;;;28.83;20.10;;;4.40;99.90;;;;;;4976044;28;20317;-75
2023/04/10 01:48:56;;;;;;;31.20;21.53;;;4.40;99.90;;;;;;4980648;28;20226;-76
2023/04/10 01:51:25;;;;;;;30.20;20.67;;;4.30;99.90;;;;;;4961596;28;20222;-76
2023/04/10 01:53:52;;;;;;;29.87;19.77;;;4.40;99.90;;;;;;4966645;28;20288;-76
2023/04/10 01:56:24;;;;;;;29.20;19.20;;;4.40;99.90;;;;;;4975349;28;20235;-77
2023/04/10 01:58:51;;;;;;;32.97;20.83;;;4.30;99.90;;;;;;4975618;28;20227;-76
2023/04/10 02:01:20;;;;;;;39.27;24.77;;;4.40;99.90;;;;;;4962626;28;20219;-76
2023/04/10 02:03:48;;;;;;;38.17;24.33;;;4.40;99.90;;;;;;4963877;28;20805;-76
2023/04/10 02:06:22;;;;;;;34.17;22.03;;;4.30;99.90;;;;;;4976109;28;20219;-76
2023/04/10 02:08:53;;;;;;;32.40;22.10;;;4.40;99.90;;;;;;4973246;28;20226;-76
2023/04/10 02:11:31;;;;;;;32.30;20.83;;;4.40;99.90;;;;;;4974308;28;20231;-76
2023/04/10 02:14:02;;;;;;;30.60;20.97;;;4.40;99.90;;;;;;4962560;28;20223;-77
2023/04/10 02:16:32;;;;;;;32.43;21.07;;;4.40;99.90;;;;;;4976071;28;20246;-76
2023/04/10 02:19:02;;;;;;;34.00;21.53;;;4.40;99.90;;;;;;4978178;28;20293;-76
2023/04/10 02:21:29;;;;;;;33.50;21.13;;;4.40;99.90;;;;;;4977013;28;20385;-77
2023/04/10 02:23:57;;;;;;;33.33;22.10;;;4.40;99.90;;;;;;4974763;28;20281;-76
2023/04/10 02:26:24;;;;;;;31.03;20.77;;;4.40;99.90;;;;;;4976449;28;20244;-76
2023/04/10 02:28:51;;;;;;;31.93;21.23;;;4.40;99.90;;;;;;4974998;28;21241;-76
2023/04/10 02:31:18;;;;;;;30.83;20.27;;;4.40;99.90;;;;;;4978203;28;20940;-75
2023/04/10 02:33:46;;;;;;;33.80;21.10;;;4.40;99.90;;;;;;4981540;28;20220;-75
2023/04/10 02:36:13;;;;;;;32.27;20.50;;;4.40;99.90;;;;;;4978780;28;20227;-75
2023/04/10 02:38:40;;;;;;;34.20;22.57;;;4.40;99.90;;;;;;4980103;28;20235;-75
2023/04/10 02:41:07;;;;;;;30.33;21.37;;;4.40;99.90;;;;;;4958498;28;20246;-75
2023/04/10 02:43:34;;;;;;;33.67;21.53;;;4.40;99.90;;;;;;4980695;28;20220;-75
2023/04/10 02:46:01;;;;;;;33.80;20.97;;;4.40;99.90;;;;;;4959162;28;20787;-76
2023/04/10 02:48:32;;;;;;;34.50;22.67;;;4.40;99.90;;;;;;4960904;28;20231;-75
2023/04/10 02:51:03;;;;;;;31.57;20.33;;;4.40;99.90;;;;;;4980355;28;20227;-75
2023/04/10 02:53:30;;;;;;;29.40;19.83;;;4.40;99.90;;;;;;4962040;28;20216;-77
2023/04/10 02:56:01;;;;;;;33.90;21.87;;;4.40;99.90;;;;;;4959422;28;20318;-78
2023/04/10 02:58:29;;;;;;;28.97;19.50;;;4.40;99.90;;;;;;4979187;28;20869;-80
2023/04/10 03:00:57;;;;;;;29.27;19.07;;;4.40;99.90;;;;;;4977471;28;20770;-79
2023/04/10 03:03:44;;;;;;;31.17;21.07;;;4.40;99.90;;;;;;4979621;28;20232;-78
2023/04/10 03:06:14;;;;;;;30.57;19.10;;;4.30;99.90;;;;;;4984207;28;20221;-78
2023/04/10 03:08:43;;;;;;;30.67;19.43;;;4.30;99.90;;;;;;4966727;28;20248;-79
2023/04/10 03:11:11;;;;;;;34.57;21.60;;;4.30;99.90;;;;;;4976003;28;20211;-78
2023/04/10 03:13:38;;;;;;;29.50;19.90;;;4.30;99.90;;;;;;4966968;28;20233;-78
2023/04/10 03:16:06;;;;;;;28.83;20.53;;;4.30;99.90;;;;;;4978925;28;20246;-78
2023/04/10 03:18:34;;;;;;;28.80;20.60;;;4.20;99.90;;;;;;4982583;28;20239;-78
2023/04/10 03:21:01;;;;;;;30.50;19.47;;;4.20;99.90;;;;;;4965499;28;20240;-78
2023/04/10 03:23:29;;;;;;;31.43;19.30;;;4.20;99.90;;;;;;4963070;28;20244;-76
2023/04/10 03:25:57;;;;;;;30.00;20.20;;;4.20;99.90;;;;;;4978419;28;20212;-76
2023/04/10 03:28:28;;;;;;;28.40;19.03;;;4.20;99.90;;;;;;4982306;28;20681;-75
2023/04/10 03:30:56;;;;;;;31.73;19.77;;;4.10;99.90;;;;;;4966736;28;20227;-76
2023/04/10 03:33:23;;;;;;;32.33;20.23;;;4.10;99.90;;;;;;4968590;28;20305;-75
2023/04/10 03:35:50;;;;;;;33.57;21.53;;;4.10;99.90;;;;;;4982492;28;20221;-78
2023/04/10 03:38:17;;;;;;;31.50;20.13;;;4.00;99.90;;;;;;4963948;28;20232;-78
2023/04/10 03:40:45;;;;;;;30.70;20.40;;;4.00;99.90;;;;;;4982748;28;20226;-78
2023/04/10 03:43:12;;;;;;;32.10;20.17;;;4.00;99.90;;;;;;4963207;28;21011;-78
2023/04/10 03:45:40;;;;;;;32.53;20.87;;;4.00;99.90;;;;;;4980890;28;20302;-78
2023/04/10 03:48:07;;;;;;;32.73;20.63;;;3.90;99.90;;;;;;4968111;28;20880;-75
2023/04/10 03:50:41;;;;;;;33.50;21.60;;;3.90;99.90;;;;;;4982070;28;20317;-75
2023/04/10 03:53:08;;;;;;;30.67;20.77;;;3.90;99.90;;;;;;4967996;28;20222;-75
2023/04/10 03:55:35;;;;;;;30.93;20.07;;;3.90;99.90;;;;;;4981233;28;20219;-75
2023/04/10 03:58:04;;;;;;;32.47;21.67;;;3.80;99.90;;;;;;4965090;28;20222;-75
2023/04/10 04:00:33;;;;;;;30.17;19.07;;;3.80;99.90;;;;;;4965364;28;20224;-75
2023/04/10 04:03:20;;;;;;;31.13;20.20;;;3.80;99.90;;;;;;4981311;28;20226;-76
2023/04/10 04:05:59;;;;;;;32.77;20.87;;;3.80;99.90;;;;;;4981360;28;20232;-75
2023/04/10 04:08:52;;;;;;;35.63;21.60;;;3.80;99.90;;;;;;4948824;28;20228;-77
2023/04/10 04:11:37;;;;;;;28.90;18.73;;;3.70;99.90;;;;;;4963892;28;20804;-78
2023/04/10 04:14:10;;;;;;;33.87;20.00;;;3.70;99.90;;;;;;4981046;28;20336;-78
2023/04/10 04:16:59;;;;;;;33.40;21.03;;;3.70;99.90;;;;;;4980152;28;20701;-76
2023/04/10 04:19:31;;;;;;;34.57;20.73;;;3.70;99.90;;;;;;4978784;28;20254;-76
2023/04/10 04:22:12;;;;;;;31.00;20.37;;;3.70;99.90;;;;;;4982956;28;20277;-76
2023/04/10 04:24:58;;;;;;;32.50;19.87;;;3.70;99.90;;;;;;4983940;28;20594;-76
2023/04/10 04:27:45;;;;;;;32.77;21.03;;;3.70;99.90;;;;;;4965317;28;20226;-76
2023/04/10 04:30:33;;;;;;;33.03;20.40;;;3.70;99.90;;;;;;4981029;28;20219;-77
2023/04/10 04:33:22;;;;;;;33.43;20.57;;;3.70;99.90;;;;;;4977356;28;20888;-76
2023/04/10 04:35:57;;;;;;;30.23;19.70;;;3.70;99.90;;;;;;4982123;28;20228;-75
2023/04/10 04:38:35;;;;;;;29.13;18.47;;;3.70;99.90;;;;;;4979076;28;20249;-76
2023/04/10 04:41:12;;;;;;;30.70;19.83;;;3.70;99.90;;;;;;4979638;28;20225;-77
2023/04/10 04:43:57;;;;;;;32.90;20.27;;;3.70;99.90;;;;;;4983653;28;20230;-77
2023/04/10 04:46:32;;;;;;;31.40;20.90;;;3.70;99.90;;;;;;4971635;28;20803;-76
2023/04/10 04:49:31;;;;;;;31.30;20.00;;;3.70;99.90;;;;;;4949728;28;20215;-76
2023/04/10 04:52:16;;;;;;;32.37;20.63;;;3.70;99.90;;;;;;4984321;28;20748;-78
2023/04/10 04:54:59;;;;;;;29.33;19.30;;;3.70;99.90;;;;;;4968660;28;20238;-82
2023/04/10 04:57:48;;;;;;;32.67;21.17;;;3.70;99.90;;;;;;4981583;28;21080;-77
2023/04/10 05:00:25;;;;;;;35.73;20.90;;;3.70;99.90;;;;;;4985227;28;20254;-78
2023/04/10 05:02:56;;;;;;;30.13;19.60;;;3.70;99.90;;;;;;4984826;28;20233;-77
2023/04/10 05:05:49;;;;;;;29.33;20.03;;;3.70;99.90;;;;;;4961012;28;20219;-81
2023/04/10 05:08:35;;;;;;;31.70;20.27;;;3.70;99.90;;;;;;4984045;28;20254;-80
2023/04/10 05:11:09;;;;;;;30.77;19.80;;;3.70;99.90;;;;;;4982469;28;20289;-81
2023/04/10 05:13:36;;;;;;;32.83;20.93;;;3.80;99.90;;;;;;4983360;28;20706;-80
2023/04/10 05:16:13;;;;;;;32.80;20.30;;;3.80;99.90;;;;;;4968377;28;20241;-81
2023/04/10 05:19:15;;;;;;;31.57;20.00;;;3.80;99.90;;;;;;4945400;28;20625;-81
2023/04/10 05:21:47;;;;;;;30.37;19.13;;;3.90;99.90;;;;;;4987644;28;20227;-78
2023/04/10 05:24:34;;;;;;;31.77;20.27;;;4.00;99.90;;;;;;4982234;28;20224;-79
2023/04/10 05:27:37;;;;;;;32.83;20.70;;;4.00;99.90;;;;;;4925870;29;20241;-78
2023/04/10 05:30:24;;;;;;;32.37;19.63;;;4.10;99.90;;;;;;4979072;28;20312;-77
2023/04/10 05:33:09;;;;;;;28.97;19.33;;;4.20;99.90;;;;;;4986731;28;20233;-78
2023/04/10 05:36:11;;;;;;;30.83;19.63;;;4.30;99.90;;;;;;4971188;28;20282;-78
2023/04/10 05:39:01;;;;;;;28.13;19.20;;;4.50;99.90;;;;;;4967616;28;20246;-78
2023/04/10 05:41:46;;;;;;;28.70;19.60;;;4.50;99.90;;;;;;4985066;28;20234;-77
2023/04/10 05:44:22;;;;;;;30.83;20.00;;;4.70;99.90;;;;;;4968171;28;20777;-81
2023/04/10 05:47:00;;;;;;;27.37;19.50;;;4.80;99.90;;;;;;4968406;28;20237;-82
2023/04/10 05:49:54;;;;;;;31.07;20.50;;;4.90;99.90;;;;;;4958405;28;20309;-79
2023/04/10 05:52:45;;;;;;;30.20;19.40;;;5.10;99.90;;;;;;4966602;28;20231;-78
2023/04/10 05:55:41;;;;;;;29.17;19.07;;;5.30;99.90;;;;;;4975236;28;20225;-80
2023/04/10 05:58:23;;;;;;;29.27;19.80;;;5.50;99.90;;;;;;4985320;28;20926;-78
2023/04/10 06:01:08;;;;;;;26.17;18.67;;;5.60;99.90;;;;;;4979069;28;20399;-80
2023/04/10 06:03:44;;;;;;;28.30;19.63;;;5.80;99.90;;;;;;4959346;28;20225;-79
2023/04/10 06:06:11;;;;;;;30.07;19.43;;;5.90;99.90;;;;;;4982416;28;20302;-78
2023/04/10 06:08:40;;;;;;;28.70;19.63;;;6.00;99.90;;;;;;4965114;28;20280;-80
2023/04/10 06:11:07;;;;;;;27.00;18.97;;;6.20;99.90;;;;;;4984693;28;20230;-79
2023/04/10 06:13:34;;;;;;;26.47;19.13;;;6.20;99.90;;;;;;4982308;28;20228;-79
2023/04/10 06:16:02;;;;;;;27.77;19.33;;;6.30;99.90;;;;;;4989763;28;20670;-78
2023/04/10 06:18:30;;;;;;;28.30;19.37;;;6.30;99.90;;;;;;4995331;23;20281;-79
2023/04/10 06:21:00;;;;;;;27.53;18.97;;;6.40;99.90;;;;;;4983599;28;20223;-79
2023/04/10 06:23:27;;;;;;;29.00;19.80;;;6.40;99.90;;;;;;4983913;28;20236;-78
2023/04/10 06:25:55;;;;;;;28.93;19.63;;;6.50;99.90;;;;;;4981783;28;20220;-81
2023/04/10 06:28:22;;;;;;;29.73;19.90;;;6.50;99.90;;;;;;4967098;28;20331;-79
2023/04/10 06:30:54;;;;;;;28.27;19.50;;;6.60;99.90;;;;;;4983419;28;20223;-80
2023/04/10 06:33:28;;;;;;;27.50;18.73;;;6.60;99.90;;;;;;4986010;28;20237;-80
2023/04/10 06:35:58;;;;;;;26.47;18.80;;;6.60;99.90;;;;;;4980817;28;20216;-81
2023/04/10 06:38:27;;;;;;;27.83;19.10;;;6.70;99.90;;;;;;4986042;28;21543;-81
2023/04/10 06:40:59;;;;;;;26.07;18.47;;;6.80;99.90;;;;;;4985705;28;20232;-81
2023/04/10 06:43:26;;;;;;;27.13;18.87;;;6.90;99.90;;;;;;4983562;28;20309;-81
2023/04/10 06:45:53;;;;;;;29.10;19.27;;;7.00;99.90;;;;;;4986072;28;20236;-82
2023/04/10 06:48:20;;;;;;;27.00;18.93;;;7.00;99.90;;;;;;4986489;28;20247;-81
2023/04/10 06:50:46;;;;;;;26.60;19.00;;;7.10;99.90;;;;;;4996747;28;20229;-81
2023/04/10 06:53:13;;;;;;;26.37;18.87;;;7.20;99.90;;;;;;4985724;28;20698;-81
2023/04/10 06:55:40;;;;;;;26.50;18.30;;;7.30;99.90;;;;;;4982593;28;20233;-81
2023/04/10 06:58:08;;;;;;;26.33;19.03;;;7.40;99.90;;;;;;5001947;28;20228;-81
2023/04/10 07:00:34;;;;;;;25.17;19.03;;;7.50;99.90;;;;;;4988929;28;20241;-81
2023/04/10 07:03:01;;;;;;;25.53;18.63;;;7.60;99.90;;;;;;5000429;28;20324;-81
2023/04/10 07:05:28;;;;;;;23.97;17.80;;;7.60;99.90;;;;;;4999356;28;20229;-81
2023/04/10 07:07:55;;;;;;;24.77;18.47;;;7.80;99.90;;;;;;4989385;28;20235;-81
2023/04/10 07:10:22;;;;;;;24.57;18.47;;;7.80;99.90;;;;;;4989226;28;20217;-81
2023/04/10 07:12:48;;;;;;;25.20;18.63;;;8.00;99.90;;;;;;4990416;28;20750;-81
2023/04/10 07:15:17;;;;;;;25.70;19.20;;;8.10;99.90;;;;;;4993274;28;20225;-81
2023/04/10 07:17:43;;;;;;;23.87;18.60;;;8.20;99.90;;;;;;5003499;28;20233;-81
2023/04/10 07:20:11;;;;;;;23.43;17.70;;;8.30;99.90;;;;;;4988661;28;20253;-81
2023/04/10 07:22:38;;;;;;;26.10;18.80;;;8.40;99.90;;;;;;5004502;28;20253;-81
2023/04/10 07:25:06;;;;;;;23.37;18.63;;;8.50;99.90;;;;;;5003970;28;20222;-81
2023/04/10 07:27:32;;;;;;;22.80;17.20;;;8.70;99.90;;;;;;4989937;28;20747;-81
2023/04/10 07:29:59;;;;;;;24.43;17.60;;;8.80;99.90;;;;;;4999161;28;20222;-81
2023/04/10 07:32:27;;;;;;;22.67;17.23;;;8.90;99.90;;;;;;4986305;28;20277;-81
2023/04/10 07:34:54;;;;;;;21.87;16.43;;;9.00;99.90;;;;;;5004243;28;20237;-81
2023/04/10 07:37:21;;;;;;;24.63;17.70;;;9.10;99.90;;;;;;4988040;28;20226;-81
2023/04/10 07:39:48;;;;;;;20.13;16.03;;;9.20;99.90;;;;;;4985976;28;20309;-81
2023/04/10 07:42:14;;;;;;;20.63;16.03;;;9.20;99.90;;;;;;4985329;28;20297;-82
2023/04/10 07:44:41;;;;;;;22.47;16.67;;;9.30;99.90;;;;;;4986743;28;20230;-82
2023/04/10 07:47:08;;;;;;;20.20;16.27;;;9.50;99.90;;;;;;4988788;28;20233;-81
2023/04/10 07:49:36;;;;;;;21.87;16.83;;;9.60;99.90;;;;;;5003930;28;20306;-81
2023/04/10 07:52:03;;;;;;;20.43;16.17;;;9.90;99.90;;;;;;4987282;28;20612;-81
2023/04/10 07:54:32;;;;;;;19.60;15.53;;;10.30;99.90;;;;;;4987189;28;20231;-82
2023/04/10 07:56:58;;;;;;;20.27;15.23;;;10.80;99.90;;;;;;4999517;28;20244;-81
2023/04/10 07:59:25;;;;;;;19.63;15.60;;;11.20;99.90;;;;;;4986072;28;20281;-82
2023/04/10 08:01:52;;;;;;;17.97;14.97;;;11.80;99.90;;;;;;4986826;28;20266;-81
2023/04/10 08:04:18;;;;;;;18.63;15.60;;;12.30;99.90;;;;;;4992201;28;20725;-81
2023/04/10 08:06:48;;;;;;;22.10;16.13;;;12.80;99.90;;;;;;4992539;28;20238;-81
2023/04/10 08:09:17;;;;;;;18.13;15.27;;;13.10;98.60;;;;;;4991037;28;20221;-81
2023/04/10 08:11:44;;;;;;;18.73;15.03;;;13.50;97.90;;;;;;4986267;28;20246;-82
2023/04/10 08:14:12;;;;;;;17.17;14.90;;;13.80;97.60;;;;;;5007131;28;20234;-82
2023/04/10 08:16:39;;;;;;;17.27;14.93;;;14.00;96.60;;;;;;4991613;28;20852;-82
2023/04/10 08:19:05;;;;;;;18.20;15.23;;;14.30;97.80;;;;;;4989185;28;20237;-82
2023/04/10 08:21:32;;;;;;;19.10;15.17;;;14.60;95.00;;;;;;4992534;28;20708;-81
2023/04/10 08:24:02;;;;;;;18.27;15.33;;;14.80;95.00;;;;;;5005813;28;20761;-82
2023/04/10 08:26:29;;;;;;;18.47;15.23;;;15.00;93.30;;;;;;4989826;28;20229;-82
2023/04/10 08:29:01;;;;;;;18.93;14.97;;;15.10;91.90;;;;;;5004300;28;20252;-82
2023/04/10 08:31:28;;;;;;;17.20;14.13;;;15.10;91.70;;;;;;4988728;28;20269;-85
2023/04/10 08:33:55;;;;;;;16.87;15.03;;;15.20;93.30;;;;;;4991219;28;20280;-85
2023/04/10 08:36:22;;;;;;;17.93;14.60;;;15.30;93.20;;;;;;4990531;28;20852;-84
2023/04/10 08:38:48;;;;;;;19.50;15.33;;;15.30;93.00;;;;;;4991672;28;20264;-84
2023/04/10 08:41:18;;;;;;;20.67;15.67;;;15.60;93.60;;;;;;4989810;28;20649;-84
2023/04/10 08:43:45;;;;;;;17.40;14.43;;;15.70;92.20;;;;;;4985333;28;20312;-84
2023/04/10 08:46:13;;;;;;;18.70;15.50;;;15.90;93.00;;;;;;5006207;28;20605;-84
2023/04/10 08:48:46;;;;;;;16.53;14.00;;;16.00;91.60;;;;;;4992218;28;20763;-82
2023/04/10 08:51:17;;;;;;;18.97;14.87;;;16.20;91.80;;;;;;5004781;28;20226;-82
2023/04/10 08:53:44;;;;;;;17.50;14.93;;;16.40;91.90;;;;;;5007434;28;20311;-82
2023/04/10 08:56:13;;;;;;;18.57;15.13;;;16.40;91.00;;;;;;4991283;28;20581;-82
2023/04/10 08:58:42;;;;;;;17.17;14.23;;;16.60;90.90;;;;;;4988934;28;20939;-81
2023/04/10 09:01:10;;;;;;;17.13;14.70;;;16.60;90.40;;;;;;4989687;28;20225;-82
2023/04/10 09:03:37;;;;;;;16.47;14.23;;;16.60;89.20;;;;;;4991712;28;20232;-82
2023/04/10 09:06:05;;;;;;;17.70;14.93;;;16.70;90.50;;;;;;4990921;28;20243;-81
2023/04/10 09:08:32;;;;;;;19.03;15.50;;;16.80;90.60;;;;;;4996527;28;20253;-82
2023/04/10 09:10:59;;;;;;;16.63;14.37;;;16.80;89.50;;;;;;5007075;28;20233;-82
2023/04/10 09:13:36;;;;;;;17.43;14.37;;;17.00;90.80;;;;;;5001263;28;20813;-82
2023/04/10 09:16:05;;;;;;;16.37;14.13;;;17.20;87.90;;;;;;4990630;28;20475;-82
2023/04/10 09:18:41;;;;;;;15.17;13.23;;;17.40;87.10;;;;;;5005191;28;20313;-82
2023/04/10 09:21:09;;;;;;;15.97;13.53;;;17.40;83.50;;;;;;4988595;28;20252;-82
2023/04/10 09:23:36;;;;;;;15.80;14.10;;;17.50;85.50;;;;;;4989629;28;20236;-82
2023/04/10 09:26:21;;;;;;;15.82;13.60;;;17.70;88.10;;;;;;5005880;28;20229;-82
2023/04/10 09:28:57;;;;;;;14.70;12.43;;;17.90;86.80;;;;;;4991243;28;20263;-82
2023/04/10 09:31:30;;;;;;;15.85;12.98;;;18.20;85.60;;;;;;4990152;28;20838;-82
2023/04/10 09:34:08;;;;;;;14.48;11.82;;;18.40;85.00;;;;;;4993649;28;20237;-82
2023/04/10 09:36:35;;;;;;;14.48;12.85;;;18.70;84.30;;;;;;4986950;28;20226;-82
2023/04/10 09:39:02;;;;;;;14.25;12.50;;;18.90;79.60;;;;;;4992846;28;20332;-82
2023/04/10 09:41:29;;;;;;;14.30;12.80;;;19.10;84.60;;;;;;4992063;28;20242;-82
2023/04/10 09:44:06;;;;;;;13.90;12.48;;;19.30;82.20;;;;;;4991025;28;20238;-82
2023/04/10 09:46:34;;;;;;;12.85;11.55;;;19.40;79.00;;;;;;4985585;28;20225;-82
2023/04/10 09:49:04;;;;;;;13.88;12.40;;;19.60;78.70;;;;;;4992543;28;20622;-82
2023/04/10 09:51:32;;;;;;;13.45;12.05;;;19.70;77.30;;;;;;4988767;28;20237;-82
2023/04/10 09:54:00;;;;;;;12.02;10.45;;;19.70;73.90;;;;;;4990676;28;20470;-82
2023/04/10 09:56:28;;;;;;;13.15;11.75;;;19.70;73.80;;;;;;4982475;28;20772;-82
2023/04/10 09:58:57;;;;;;;11.95;10.75;;;19.70;74.70;;;;;;4990413;28;20736;-82
2023/04/10 10:01:26;;;;;;;13.93;11.13;;;19.60;73.10;;;;;;4988090;28;20230;-82
2023/04/10 10:03:55;;;;;;;12.77;11.23;;;19.50;71.90;;;;;;5006447;28;20337;-82
2023/04/10 10:06:23;;;;;;;11.65;10.45;;;19.40;71.40;;;;;;4991614;28;20218;-82
2023/04/10 10:08:52;;;;;;;12.90;10.73;;;19.50;74.30;;;;;;5005926;28;20964;-82
2023/04/10 10:11:21;;;;;;;11.52;10.05;;;19.60;73.10;;;;;;5004286;28;20239;-82
2023/04/10 10:13:52;;;;;;;11.15;9.95;;;19.60;70.50;;;;;;5005111;28;20289;-82
2023/04/10 10:16:25;;;;;;;11.63;9.85;;;19.60;69.40;;;;;;5005827;28;20225;-82
2023/04/10 10:19:09;;;;;;;9.73;8.68;;;19.60;70.20;;;;;;4989730;28;21011;-82
2023/04/10 10:21:36;;;;;;;10.27;8.60;;;19.60;69.10;;;;;;4989267;28;20258;-82
2023/04/10 10:24:08;;;;;;;10.73;9.70;;;19.70;70.80;;;;;;4990932;28;20229;-82
2023/04/10 10:26:35;;;;;;;10.52;9.43;;;19.80;67.90;;;;;;4991523;28;20272;-82
2023/04/10 10:29:05;;;;;;;11.43;8.80;;;19.80;68.20;;;;;;4990385;28;20226;-82
2023/04/10 10:31:35;;;;;;;8.68;7.78;;;19.70;65.30;;;;;;5005203;28;20229;-83
2023/04/10 10:34:06;;;;;;;10.05;8.95;;;19.80;66.90;;;;;;4987253;28;20242;-82
2023/04/10 10:36:33;;;;;;;8.85;7.95;;;19.60;64.50;;;;;;4989451;28;20284;-82
2023/04/10 10:39:18;;;;;;;10.05;9.05;;;19.60;65.60;;;;;;5005487;28;20791;-85
2023/04/10 10:41:53;;;;;;;9.90;8.65;;;19.50;66.10;;;;;;4989250;28;20704;-83
2023/04/10 10:44:28;;;;;;;9.73;8.57;;;19.40;66.90;;;;;;4989299;28;20248;-83
2023/04/10 10:47:05;;;;;;;9.57;8.60;;;19.50;69.10;;;;;;4989918;28;20229;-83
2023/04/10 10:49:53;;;;;;;9.50;7.53;;;19.60;66.70;;;;;;5003560;28;20645;-83
2023/04/10 10:52:41;;;;;;;9.00;7.60;;;19.70;63.90;;;;;;5005429;28;20926;-83
2023/04/10 10:55:36;;;;;;;8.10;7.22;;;19.70;64.30;;;;;;4988113;28;20225;-83
2023/04/10 10:58:05;;;;;;;8.20;7.40;;;19.80;62.80;;;;;;4989661;28;20248;-82
2023/04/10 11:01:09;;;;;;;9.68;8.07;;;20.00;63.30;;;;;;4989996;28;20546;-82
2023/04/10 11:03:36;;;;;;;8.98;8.07;;;19.90;60.50;;;;;;5004917;28;20284;-83
2023/04/10 11:06:07;;;;;;;8.25;7.28;;;19.90;62.00;;;;;;4990104;28;20226;-83
2023/04/10 11:08:41;;;;;;;8.48;7.57;;;19.90;60.00;;;;;;4988026;28;20601;-83
2023/04/10 11:11:10;;;;;;;9.25;7.68;;;19.80;61.30;;;;;;5002723;28;20226;-83
2023/04/10 11:13:40;;;;;;;8.93;7.53;;;19.80;62.00;;;;;;4985131;28;20827;-83
2023/04/10 11:16:10;;;;;;;7.13;6.45;;;19.70;61.40;;;;;;5004067;28;20244;-83
2023/04/10 11:19:03;;;;;;;8.38;7.18;;;19.50;61.70;;;;;;5004371;28;20349;-83
2023/04/10 11:21:31;;;;;;;7.78;6.97;;;19.30;60.80;;;;;;4989257;28;20230;-83
2023/04/10 11:24:05;;;;;;;8.40;7.53;;;19.30;63.00;;;;;;4988621;28;20230;-83
2023/04/10 11:26:38;;;;;;;8.25;7.00;;;19.20;60.40;;;;;;4987087;28;21013;-83
2023/04/10 11:29:07;;;;;;;7.72;6.93;;;19.20;61.60;;;;;;4988888;28;20214;-83
2023/04/10 11:31:37;;;;;;;7.97;7.18;;;19.20;61.70;;;;;;5004758;28;20576;-83
2023/04/10 11:34:06;;;;;;;7.35;6.65;;;19.40;63.30;;;;;;5000254;28;20739;-83
2023/04/10 11:36:38;;;;;;;8.48;7.45;;;19.40;62.60;;;;;;4990470;28;20221;-83
2023/04/10 11:39:07;;;;;;;7.82;7.03;;;19.50;62.60;;;;;;4989891;28;20226;-83
2023/04/10 11:41:36;;;;;;;7.57;6.78;;;19.70;62.20;;;;;;4992098;28;20291;-83
2023/04/10 11:44:04;;;;;;;8.10;7.30;;;19.80;61.90;;;;;;5006878;28;20245;-83
2023/04/10 11:46:31;;;;;;;7.85;7.13;;;19.90;59.90;;;;;;4991730;28;20226;-83
2023/04/10 11:49:00;;;;;;;9.35;6.72;;;19.90;61.30;;;;;;4990672;28;20572;-83
2023/04/10 11:51:27;;;;;;;7.47;6.70;;;20.00;61.00;;;;;;5007515;28;20228;-83
2023/04/10 11:54:07;;;;;;;6.93;6.28;;;19.80;58.30;;;;;;4990512;28;20230;-83
2023/04/10 11:56:34;;;;;;;7.03;6.38;;;19.60;57.60;;;;;;4984239;28;20256;-83
2023/04/10 11:59:06;;;;;;;6.63;5.95;;;19.50;57.90;;;;;;4990369;28;20269;-83
2023/04/10 12:01:33;;;;;;;8.10;6.15;;;19.30;56.50;;;;;;4990587;28;20225;-83
2023/04/10 12:04:00;;;;;;;7.13;6.35;;;19.30;58.60;;;;;;4990505;28;20242;-83
2023/04/10 12:06:27;;;;;;;6.45;5.85;;;19.30;58.00;;;;;;5007074;28;20708;-83
2023/04/10 12:08:54;;;;;;;6.38;5.78;;;19.20;58.50;;;;;;4993201;28;20284;-83
2023/04/10 12:11:28;;;;;;;6.50;5.88;;;19.30;58.10;;;;;;4990724;28;20241;-83
2023/04/10 12:13:56;;;;;;;5.80;5.20;;;19.30;59.10;;;;;;5005066;28;20222;-83
2023/04/10 12:16:25;;;;;;;7.50;5.65;;;19.30;57.00;;;;;;4987243;28;20296;-83
2023/04/10 12:18:52;;;;;;;8.48;5.65;;;19.30;56.20;;;;;;5025860;23;20245;-80
2023/04/10 12:21:19;;;;;;;6.03;4.90;;;19.30;56.20;;;;;;4998034;28;20307;-80
2023/04/10 12:23:46;;;;;;;5.97;5.07;;;19.20;56.20;;;;;;5007991;28;20241;-80
2023/04/10 12:26:15;;;;;;;5.50;5.00;;;19.00;55.00;;;;;;5001543;28;20785;-80
2023/04/10 12:28:51;;;;;;;5.28;4.53;;;19.00;55.90;;;;;;5005287;28;20341;-80
2023/04/10 12:31:18;;;;;;;5.57;5.00;;;18.90;55.50;;;;;;5007834;28;20260;-80
2023/04/10 12:33:45;;;;;;;6.47;5.10;;;18.90;55.70;;;;;;5020244;28;20703;-79
2023/04/10 12:36:21;;;;;;;6.57;5.03;;;18.90;55.70;;;;;;5015236;28;20228;-80
2023/04/10 12:38:47;;;;;;;4.88;4.25;;;18.70;55.20;;;;;;5011942;28;20237;-80
2023/04/10 12:41:21;;;;;;;5.60;4.78;;;18.70;56.10;;;;;;5008861;28;20376;-80
2023/04/10 12:43:49;;;;;;;6.28;4.20;;;18.50;55.50;;;;;;5007767;28;20793;-80
2023/04/10 12:46:24;;;;;;;6.55;5.15;;;18.60;56.30;;;;;;5012269;28;20321;-80
2023/04/10 12:48:51;;;;;;;5.15;4.50;;;18.50;55.90;;;;;;5008223;28;20213;-80
2023/04/10 12:51:18;;;;;;;5.18;4.40;;;18.50;56.00;;;;;;5013111;28;20230;-80
2023/04/10 12:53:45;;;;;;;4.60;4.20;;;18.40;55.50;;;;;;5004853;28;20232;-79
2023/04/10 12:56:13;;;;;;;5.28;4.53;;;18.50;57.00;;;;;;5007349;28;20229;-82
2023/04/10 12:58:41;;;;;;;5.20;4.25;;;18.50;56.50;;;;;;5002867;28;20312;-79
2023/04/10 13:01:09;;;;;;;4.57;3.88;;;18.50;57.20;;;;;;5006772;28;20226;-80